createdAt,value
2022-08-07T00:02:40.575Z,51.27
2022-08-07T00:05:05.746Z,51.68
2022-08-07T00:07:40.311Z,51.33
2022-08-07T00:10:30.482Z,52.23
2022-08-07T00:13:09.921Z,51.85
2022-08-07T00:15:52.716Z,51.52
2022-08-07T00:18:25.315Z,52.17
2022-08-07T00:21:08.099Z,52.56
2022-08-07T00:23:51.700Z,51.50
2022-08-07T00:26:48.746Z,50.92
2022-08-07T00:29:08.256Z,52.57
2022-08-07T00:31:37.640Z,52.88
2022-08-07T00:34:10.057Z,52.57
2022-08-07T00:36:43.032Z,52.78
2022-08-07T00:39:17.082Z,53.81
2022-08-07T00:42:04.985Z,53.32
2022-08-07T00:44:35.374Z,52.95
2022-08-07T00:48:05.419Z,53.29
2022-08-07T00:50:18.970Z,53.05
2022-08-07T00:52:47.554Z,54.29
2022-08-07T00:55:17.452Z,53.92
2022-08-07T00:57:56.024Z,55.18
2022-08-07T01:00:25.830Z,55.13
2022-08-07T01:02:54.584Z,54.99
2022-08-07T01:05:24.527Z,54.75
2022-08-07T01:07:53.303Z,54.76
2022-08-07T01:10:23.844Z,54.17
2022-08-07T01:12:54.669Z,55.05
2022-08-07T01:16:00.883Z,55.92
2022-08-07T01:18:17.611Z,56.14
2022-08-07T01:21:22.822Z,55.94
2022-08-07T01:23:58.033Z,56.61
2022-08-07T01:26:28.202Z,56.74
2022-08-07T01:28:56.946Z,57.01
2022-08-07T01:31:42.697Z,56.25
2022-08-07T01:34:17.980Z,57.40
2022-08-07T01:36:52.536Z,55.49
2022-08-07T01:39:40.403Z,57.00
2022-08-07T01:42:38.517Z,57.15
2022-08-07T01:45:09.663Z,55.55
2022-08-07T01:48:20.924Z,56.23
2022-08-07T01:50:29.361Z,57.41
2022-08-07T01:53:08.746Z,57.67
2022-08-07T01:55:47.458Z,55.69
2022-08-07T01:58:27.766Z,56.24
2022-08-07T02:01:10.401Z,57.71
2022-08-07T02:04:07.691Z,57.69
2022-08-07T02:06:41.570Z,57.50
2022-08-07T02:09:52.344Z,56.23
2022-08-07T02:12:19.832Z,57.91
2022-08-07T02:15:06.049Z,58.91
2022-08-07T02:17:49.437Z,56.69
2022-08-07T02:20:23.878Z,57.33
2022-08-07T02:23:02.236Z,57.56
2022-08-07T02:26:30.995Z,57.96
2022-08-07T02:28:29.816Z,59.01
2022-08-07T02:31:24.695Z,58.96
2022-08-07T02:34:10.969Z,59.81
2022-08-07T02:36:46.580Z,58.86
2022-08-07T02:39:43.849Z,58.59
2022-08-07T02:42:14.521Z,58.42
2022-08-07T02:44:50.110Z,58.04
2022-08-07T02:47:23.488Z,57.24
2022-08-07T02:49:59.665Z,57.43
2022-08-07T02:52:49.367Z,58.52
2022-08-07T02:56:02.417Z,59.03
2022-08-07T02:58:23.484Z,59.83
2022-08-07T03:00:59.388Z,59.73
2022-08-07T03:03:49.130Z,60.06
2022-08-07T03:06:25.469Z,60.64
2022-08-07T03:08:56.146Z,59.53
2022-08-07T03:11:28.250Z,59.80
2022-08-07T03:14:01.586Z,60.23
2022-08-07T03:16:32.283Z,61.07
2022-08-07T03:19:02.950Z,60.63
2022-08-07T03:21:33.522Z,61.29
2022-08-07T03:24:20.298Z,61.18
2022-08-07T03:26:59.032Z,60.84
2022-08-07T03:29:39.872Z,60.79
2022-08-07T03:32:18.922Z,60.76
2022-08-07T03:35:01.068Z,60.48
2022-08-07T03:37:46.376Z,60.92
2022-08-07T03:40:27.554Z,61.06
2022-08-07T03:43:02.069Z,61.66
2022-08-07T03:45:34.567Z,60.61
2022-08-07T03:48:12.690Z,60.88
2022-08-07T03:50:43.241Z,61.02
2022-08-07T03:54:01.851Z,60.82
2022-08-07T03:56:33.011Z,60.85
2022-08-07T03:59:09.882Z,59.22
2022-08-07T04:01:46.429Z,60.02
2022-08-07T04:04:19.334Z,60.26
2022-08-07T04:06:53.247Z,60.82
2022-08-07T04:09:25.692Z,60.48
2022-08-07T04:12:25.319Z,60.96
2022-08-07T04:15:00.213Z,60.03
2022-08-07T04:18:19.674Z,60.33
2022-08-07T04:20:20.161Z,59.28
2022-08-07T04:22:53.346Z,60.04
2022-08-07T04:25:24.318Z,58.58
2022-08-07T04:27:59.222Z,60.19
2022-08-07T04:30:39.633Z,59.02
2022-08-07T04:33:25.658Z,59.45
2022-08-07T04:35:55.763Z,59.82
2022-08-07T04:38:29.649Z,59.94
2022-08-07T04:40:59.531Z,60.97
2022-08-07T04:44:09.689Z,60.43
2022-08-07T04:47:07.895Z,60.84
2022-08-07T04:50:16.334Z,60.05
2022-08-07T04:53:27.957Z,60.45
2022-08-07T04:58:15.191Z,61.62
2022-08-07T05:00:11.988Z,61.06
2022-08-07T05:02:26.828Z,60.84
2022-08-07T05:05:53.633Z,60.89
2022-08-07T05:08:59.741Z,60.18
2022-08-07T05:11:57.407Z,60.89
2022-08-07T05:14:55.127Z,60.19
2022-08-07T05:17:51.990Z,61.20
2022-08-07T05:20:27.237Z,60.41
2022-08-07T05:23:15.628Z,60.77
2022-08-07T05:26:10.726Z,60.93
2022-08-07T05:28:40.569Z,60.94
2022-08-07T05:31:14.610Z,60.48
2022-08-07T05:34:01.492Z,60.55
2022-08-07T05:36:39.210Z,61.11
2022-08-07T05:40:05.208Z,60.72
2022-08-07T05:42:12.421Z,61.09
2022-08-07T05:44:52.841Z,61.40
2022-08-07T05:47:38.416Z,61.00
2022-08-07T05:50:24.098Z,60.51
2022-08-07T05:52:52.456Z,60.59
2022-08-07T05:55:21.878Z,59.67
2022-08-07T05:57:54.231Z,59.93
2022-08-07T06:00:25.679Z,59.88
2022-08-07T06:03:06.831Z,59.68
2022-08-07T06:05:35.317Z,59.47
2022-08-07T06:08:29.508Z,59.88
2022-08-07T06:10:58.678Z,58.71
2022-08-07T06:14:10.673Z,58.83
2022-08-07T06:16:18.084Z,57.79
2022-08-07T06:18:51.899Z,57.93
2022-08-07T06:22:14.461Z,57.36
2022-08-07T06:24:52.437Z,56.68
2022-08-07T06:27:04.824Z,56.45
2022-08-07T06:29:38.760Z,56.07
2022-08-07T06:32:08.591Z,54.60
2022-08-07T06:34:36.847Z,54.59
2022-08-07T06:37:09.379Z,53.99
2022-08-07T06:40:16.015Z,53.80
2022-08-07T06:42:37.477Z,53.51
2022-08-07T06:45:22.629Z,53.09
2022-08-07T06:47:59.533Z,52.98
2022-08-07T06:50:39.465Z,52.06
2022-08-07T06:54:12.131Z,50.66
2022-08-07T06:56:15.004Z,51.29
2022-08-07T07:00:12.532Z,51.18
2022-08-07T07:01:48.749Z,49.75
2022-08-07T07:04:28.056Z,49.44
2022-08-07T07:07:19.469Z,48.77
2022-08-07T07:09:52.292Z,48.55
2022-08-07T07:12:31.273Z,48.89
2022-08-07T07:15:24.123Z,48.44
2022-08-07T07:18:37.655Z,47.96
2022-08-07T07:22:04.545Z,45.93
2022-08-07T07:24:18.734Z,45.93
2022-08-07T07:26:52.569Z,46.20
2022-08-07T07:29:57.124Z,45.33
2022-08-07T07:32:18.775Z,46.02
2022-08-07T07:34:52.677Z,46.00
2022-08-07T07:37:49.557Z,45.13
2022-08-07T07:40:18.784Z,43.55
2022-08-07T07:42:54.032Z,44.45
2022-08-07T07:46:38.199Z,43.79
2022-08-07T07:48:35.072Z,44.28
2022-08-07T07:51:08.143Z,44.34
2022-08-07T07:53:51.382Z,41.87
2022-08-07T07:56:30.306Z,43.01
2022-08-07T07:59:02.028Z,43.16
2022-08-07T08:02:04.769Z,41.16
2022-08-07T08:04:30.875Z,41.65
2022-08-07T08:07:02.801Z,42.40
2022-08-07T08:09:51.770Z,42.24
2022-08-07T08:12:52.000Z,42.16
2022-08-07T08:15:17.221Z,40.07
2022-08-07T08:17:57.287Z,40.80
2022-08-07T08:20:33.078Z,40.75
2022-08-07T08:23:27.905Z,40.46
2022-08-07T08:26:21.362Z,39.25
2022-08-07T08:28:54.464Z,39.30
2022-08-07T08:31:59.038Z,39.74
2022-08-07T08:34:34.033Z,38.15
2022-08-07T08:37:09.902Z,38.06
2022-08-07T08:39:58.638Z,38.53
2022-08-07T08:42:51.634Z,37.28
2022-08-07T08:45:42.039Z,37.25
2022-08-07T08:48:51.560Z,35.80
2022-08-07T08:51:49.751Z,35.19
2022-08-07T08:54:45.014Z,37.51
2022-08-07T08:57:40.379Z,35.77
2022-08-07T09:00:12.143Z,35.34
2022-08-07T09:02:59.400Z,33.47
2022-08-07T09:05:37.808Z,35.47
2022-08-07T09:08:41.349Z,34.70
2022-08-07T09:11:50.751Z,33.08
2022-08-07T09:14:50.552Z,35.28
2022-08-07T09:18:01.294Z,35.54
2022-08-07T09:21:57.857Z,35.39
2022-08-07T09:24:58.566Z,35.07
2022-08-07T09:28:00.710Z,37.17
2022-08-07T09:31:03.026Z,37.87
2022-08-07T09:34:15.850Z,37.25
2022-08-07T09:37:06.273Z,37.60
2022-08-07T09:39:54.796Z,38.55
2022-08-07T09:42:58.857Z,36.40
2022-08-07T09:47:24.304Z,36.56
2022-08-07T09:50:01.995Z,36.15
2022-08-07T09:52:51.850Z,34.85
2022-08-07T09:56:03.193Z,33.60
2022-08-07T09:59:29.436Z,32.76
2022-08-07T10:02:24.678Z,33.15
2022-08-07T10:05:59.390Z,33.19
2022-08-07T10:09:00.508Z,34.78
2022-08-07T10:12:15.120Z,34.19
2022-08-07T10:15:21.992Z,33.58
2022-08-07T10:18:15.523Z,33.43
2022-08-07T10:21:19.745Z,34.31
2022-08-07T10:24:38.105Z,34.30
2022-08-07T10:27:17.679Z,34.44
2022-08-07T10:30:07.126Z,33.08
2022-08-07T10:34:06.265Z,34.10
2022-08-07T10:36:48.876Z,34.19
2022-08-07T10:40:03.059Z,30.96
2022-08-07T10:42:57.489Z,31.58
2022-08-07T10:45:48.095Z,33.83
2022-08-07T10:49:02.356Z,33.16
2022-08-07T10:52:12.934Z,32.03
2022-08-07T10:55:00.889Z,32.63
2022-08-07T10:58:17.058Z,33.53
2022-08-07T11:01:19.249Z,31.83
2022-08-07T11:04:31.613Z,32.59
2022-08-07T11:07:58.981Z,32.62
2022-08-07T11:10:52.405Z,31.88
2022-08-07T11:14:46.296Z,31.11
2022-08-07T11:17:07.368Z,31.28
2022-08-07T11:20:07.862Z,31.11
2022-08-07T11:22:58.456Z,31.13
2022-08-07T11:25:47.850Z,31.07
2022-08-07T11:28:34.199Z,31.32
2022-08-07T11:31:35.129Z,29.55
2022-08-07T11:34:35.971Z,29.57
2022-08-07T11:37:58.078Z,27.42
2022-08-07T11:41:22.229Z,26.85
2022-08-07T11:44:20.817Z,29.75
2022-08-07T11:48:13.705Z,28.13
2022-08-07T11:51:41.657Z,26.09
2022-08-07T11:54:38.506Z,25.48
2022-08-07T11:58:00.092Z,27.73
2022-08-07T12:00:53.606Z,27.14
2022-08-07T12:04:05.195Z,26.25
2022-08-07T12:06:50.838Z,25.44
2022-08-07T12:09:55.378Z,26.09
2022-08-07T12:12:55.260Z,28.55
2022-08-07T12:16:06.796Z,25.96
2022-08-07T12:19:14.607Z,25.97
2022-08-07T12:22:38.654Z,24.60
2022-08-07T12:26:03.272Z,24.93
2022-08-07T12:29:20.284Z,27.42
2022-08-07T12:32:04.184Z,26.46
2022-08-07T12:34:38.917Z,25.33
2022-08-07T12:37:22.946Z,26.90
2022-08-07T12:39:57.452Z,26.34
2022-08-07T12:42:32.197Z,27.60
2022-08-07T12:45:14.915Z,28.15
2022-08-07T12:48:27.679Z,26.51
2022-08-07T12:51:13.115Z,24.61
2022-08-07T12:54:36.560Z,24.78
2022-08-07T12:57:12.640Z,25.94
2022-08-07T12:59:55.832Z,26.90
2022-08-07T13:02:57.924Z,26.28
2022-08-07T13:06:02.732Z,28.74
2022-08-07T13:08:56.514Z,26.72
2022-08-07T13:12:02.253Z,28.91
2022-08-07T13:14:56.867Z,29.81
2022-08-07T13:18:03.582Z,29.38
2022-08-07T13:20:51.125Z,30.14
2022-08-07T13:24:01.821Z,30.29
2022-08-07T13:27:13.129Z,29.10
2022-08-07T13:29:58.073Z,27.95
2022-08-07T13:32:55.255Z,26.37
2022-08-07T13:35:59.523Z,26.50
2022-08-07T13:38:45.480Z,25.33
2022-08-07T13:41:49.595Z,28.04
2022-08-07T13:44:37.044Z,27.85
2022-08-07T13:47:15.935Z,28.58
2022-08-07T13:50:33.401Z,26.15
2022-08-07T13:52:51.798Z,26.21
2022-08-07T13:55:25.790Z,25.04
2022-08-07T13:58:34.143Z,25.70
2022-08-07T14:01:20.392Z,24.68
2022-08-07T14:04:06.741Z,26.23
2022-08-07T14:06:41.920Z,25.36
2022-08-07T14:10:02.191Z,24.78
2022-08-07T14:12:56.448Z,25.36
2022-08-07T14:15:40.651Z,25.38
2022-08-07T14:18:28.924Z,25.71
2022-08-07T14:22:02.318Z,27.04
2022-08-07T14:24:42.119Z,28.64
2022-08-07T14:28:09.407Z,27.58
2022-08-07T14:30:11.751Z,27.22
2022-08-07T14:32:55.876Z,25.35
2022-08-07T14:35:45.073Z,28.01
2022-08-07T14:38:30.700Z,28.63
2022-08-07T14:41:12.437Z,26.25
2022-08-07T14:43:57.264Z,27.00
2022-08-07T14:46:32.455Z,27.75
2022-08-07T14:54:54.268Z,29.13
2022-08-07T14:57:25.394Z,28.92
2022-08-07T15:00:20.656Z,28.03
2022-08-07T15:11:52.879Z,28.25
2022-08-07T15:17:18.912Z,27.65
2022-08-07T15:20:32.368Z,26.54
2022-08-07T15:22:53.926Z,26.33
2022-08-07T15:25:36.749Z,26.33
2022-08-07T15:28:34.962Z,25.71
2022-08-07T15:34:00.884Z,25.06
2022-08-07T15:37:02.691Z,25.32
2022-08-07T15:39:27.156Z,24.54
2022-08-07T15:42:47.827Z,26.00
2022-08-07T15:45:22.181Z,25.18
2022-08-07T15:48:03.114Z,25.34
2022-08-07T15:51:01.530Z,25.65
2022-08-07T15:53:52.779Z,25.83
2022-08-07T15:56:46.130Z,25.28
2022-08-07T15:59:20.367Z,26.22
2022-08-07T16:02:23.832Z,25.42
2022-08-07T16:05:15.347Z,24.90
2022-08-07T16:08:30.621Z,27.10
2022-08-07T16:10:52.436Z,26.40
2022-08-07T16:14:11.702Z,25.65
2022-08-07T16:18:02.639Z,25.05
2022-08-07T16:20:55.251Z,26.00
2022-08-07T16:24:35.056Z,25.72
2022-08-07T16:27:19.063Z,25.35
2022-08-07T16:30:30.298Z,26.91
2022-08-07T16:34:01.549Z,27.79
2022-08-07T16:36:20.684Z,27.58
2022-08-07T16:39:10.755Z,26.88
2022-08-07T16:42:45.302Z,27.78
2022-08-07T16:46:40.486Z,26.56
2022-08-07T16:50:28.507Z,25.66
2022-08-07T16:52:52.802Z,24.71
2022-08-07T16:55:47.274Z,26.25
2022-08-07T16:59:14.366Z,26.66
2022-08-07T17:02:52.476Z,25.79
2022-08-07T17:06:19.898Z,26.07
2022-08-07T17:09:09.116Z,26.70
2022-08-07T17:12:04.434Z,25.79
2022-08-07T17:15:04.449Z,26.30
2022-08-07T17:17:46.932Z,26.74
2022-08-07T17:20:37.546Z,26.76
2022-08-07T17:23:22.412Z,26.21
2022-08-07T17:26:34.867Z,26.29
2022-08-07T17:30:16.193Z,26.58
2022-08-07T17:32:54.773Z,27.69
2022-08-07T17:36:04.895Z,27.10
2022-08-07T17:39:10.205Z,26.85
2022-08-07T17:42:03.582Z,26.29
2022-08-07T17:44:54.811Z,26.29
2022-08-07T17:47:54.255Z,26.20
2022-08-07T17:50:34.169Z,26.22
2022-08-07T17:54:01.039Z,27.03
2022-08-07T17:56:30.161Z,26.98
2022-08-07T17:59:10.599Z,27.35
2022-08-07T18:02:10.870Z,27.65
2022-08-07T18:05:21.733Z,28.43
2022-08-07T18:08:23.940Z,29.25
2022-08-07T18:12:17.845Z,30.42
2022-08-07T18:14:37.547Z,29.63
2022-08-07T18:18:47.362Z,29.66
2022-08-07T18:21:10.477Z,29.61
2022-08-07T18:24:00.728Z,30.45
2022-08-07T18:26:40.759Z,29.69
2022-08-07T18:30:04.658Z,29.44
2022-08-07T18:33:15.251Z,28.58
2022-08-07T18:36:33.324Z,29.31
2022-08-07T18:40:05.197Z,30.01
2022-08-07T18:42:56.036Z,31.27
2022-08-07T18:46:21.947Z,31.29
2022-08-07T18:50:19.375Z,30.10
2022-08-07T18:52:34.806Z,29.81
2022-08-07T18:55:57.890Z,30.40
2022-08-07T18:59:07.677Z,30.29
2022-08-07T19:02:18.068Z,32.62
2022-08-07T19:05:10.689Z,32.77
2022-08-07T19:08:17.424Z,31.38
2022-08-07T19:11:35.653Z,32.06
2022-08-07T19:14:20.051Z,32.69
2022-08-07T19:17:07.119Z,34.01
2022-08-07T19:20:29.928Z,33.46
2022-08-07T19:23:18.390Z,35.20
2022-08-07T19:26:23.929Z,35.19
2022-08-07T19:30:55.676Z,35.15
2022-08-07T19:32:10.556Z,34.50
2022-08-07T19:34:36.354Z,34.93
2022-08-07T19:37:17.798Z,35.86
2022-08-07T19:40:02.105Z,35.17
2022-08-07T19:42:40.278Z,34.14
2022-08-07T19:46:09.254Z,33.46
2022-08-07T19:48:18.092Z,33.02
2022-08-07T19:50:53.174Z,33.00
2022-08-07T19:54:34.783Z,33.49
2022-08-07T19:58:01.820Z,34.86
2022-08-07T19:59:08.704Z,33.95
2022-08-07T20:01:56.139Z,34.29
2022-08-07T20:04:43.130Z,34.54
2022-08-07T20:07:46.638Z,34.56
2022-08-07T20:10:35.220Z,34.35
2022-08-07T20:13:26.689Z,34.76
2022-08-07T20:15:58.331Z,35.28
2022-08-07T20:18:34.474Z,35.52
2022-08-07T20:21:21.155Z,35.17
2022-08-07T20:24:01.045Z,36.14
2022-08-07T20:26:45.071Z,35.86
2022-08-07T20:29:48.179Z,35.69
2022-08-07T20:32:22.617Z,35.79
2022-08-07T20:35:00.090Z,37.04
2022-08-07T20:37:33.956Z,37.18
2022-08-07T20:40:31.170Z,36.54
2022-08-07T20:43:09.456Z,35.97
2022-08-07T20:46:28.202Z,37.22
2022-08-07T20:48:36.059Z,37.78
2022-08-07T20:51:09.820Z,38.68
2022-08-07T20:54:03.057Z,38.63
2022-08-07T20:56:32.524Z,39.68
2022-08-07T20:59:05.985Z,38.73
2022-08-07T21:01:58.225Z,37.67
2022-08-07T21:04:31.561Z,37.52
2022-08-07T21:07:04.336Z,37.33
2022-08-07T21:09:52.628Z,38.20
2022-08-07T21:12:31.705Z,37.98
2022-08-07T21:15:07.075Z,38.51
2022-08-07T21:18:02.796Z,38.41
2022-08-07T21:20:33.523Z,39.16
2022-08-07T21:23:28.242Z,39.95
2022-08-07T21:26:13.761Z,38.41
2022-08-07T21:28:59.467Z,39.62
2022-08-07T21:32:47.534Z,40.31
2022-08-07T21:34:58.133Z,39.40
2022-08-07T21:37:58.039Z,40.19
2022-08-07T21:41:00.520Z,40.05
2022-08-07T21:44:28.354Z,40.54
2022-08-07T21:47:04.750Z,40.60
2022-08-07T21:50:01.886Z,40.80
2022-08-07T21:53:07.709Z,40.84
2022-08-07T21:56:07.321Z,40.37
2022-08-07T21:59:21.839Z,40.91
2022-08-07T22:02:13.379Z,39.73
2022-08-07T22:04:51.232Z,40.76
2022-08-07T22:07:31.588Z,41.76
2022-08-07T22:10:22.194Z,42.23
2022-08-07T22:13:02.753Z,42.20
2022-08-07T22:16:42.548Z,42.13
2022-08-07T22:19:23.707Z,41.79
2022-08-07T22:22:27.526Z,41.58
2022-08-07T22:25:26.579Z,42.96
2022-08-07T22:28:30.917Z,43.25
2022-08-07T22:31:56.477Z,43.65
2022-08-07T22:34:28.873Z,42.36
2022-08-07T22:37:17.020Z,43.42
2022-08-07T22:40:15.124Z,42.96
2022-08-07T22:42:49.445Z,43.16
2022-08-07T22:46:21.790Z,43.40
2022-08-07T22:49:09.498Z,42.94
2022-08-07T22:52:11.806Z,43.93
2022-08-07T22:55:30.015Z,43.58
2022-08-07T22:58:31.874Z,43.74
2022-08-07T23:01:49.911Z,44.17
2022-08-07T23:06:08.180Z,44.36
2022-08-07T23:08:51.584Z,45.04
2022-08-07T23:12:06.179Z,44.98
2022-08-07T23:15:01.681Z,44.53
2022-08-07T23:17:59.512Z,44.28
2022-08-07T23:20:53.183Z,43.84
2022-08-07T23:24:11.891Z,43.98
2022-08-07T23:27:33.659Z,43.96
2022-08-07T23:30:38.106Z,45.97
2022-08-07T23:34:34.806Z,45.54
2022-08-07T23:37:19.128Z,45.48
2022-08-07T23:40:31.064Z,45.46
2022-08-07T23:43:40.010Z,45.54
2022-08-07T23:46:48.694Z,46.47
2022-08-07T23:49:57.266Z,46.74
2022-08-07T23:53:49.575Z,47.51
2022-08-07T23:56:31.154Z,47.52
